createdAt,value
2023-05-06T00:01:16.864Z,4.47
2023-05-06T00:03:44.859Z,4.77
2023-05-06T00:06:12.830Z,4.40
2023-05-06T00:08:40.680Z,4.50
2023-05-06T00:11:08.594Z,4.27
2023-05-06T00:13:37.592Z,4.70
2023-05-06T00:16:05.982Z,4.50
2023-05-06T00:18:35.778Z,4.17
2023-05-06T00:21:04.476Z,4.87
2023-05-06T00:23:32.449Z,4.93
2023-05-06T00:26:00.878Z,4.87
2023-05-06T00:28:28.888Z,4.53
2023-05-06T00:30:56.808Z,4.53
2023-05-06T00:33:26.842Z,4.90
2023-05-06T00:35:56.161Z,4.33
2023-05-06T00:38:24.142Z,5.37
2023-05-06T00:40:52.014Z,5.17
2023-05-06T00:43:19.875Z,5.10
2023-05-06T00:45:48.704Z,5.00
2023-05-06T00:48:20.283Z,5.07
2023-05-06T00:50:49.324Z,5.50
2023-05-06T00:53:21.200Z,5.07
2023-05-06T00:55:51.057Z,5.23
2023-05-06T00:58:20.615Z,5.10
2023-05-06T01:00:49.306Z,4.90
2023-05-06T01:03:17.286Z,5.03
2023-05-06T01:05:55.802Z,5.40
2023-05-06T01:08:30.262Z,5.20
2023-05-06T01:11:05.898Z,5.43
2023-05-06T01:13:44.071Z,5.53
2023-05-06T01:16:16.753Z,5.67
2023-05-06T01:18:46.695Z,5.37
2023-05-06T01:21:15.118Z,5.73
2023-05-06T01:23:55.203Z,6.10
2023-05-06T01:26:23.645Z,5.90
2023-05-06T01:28:51.871Z,6.20
2023-05-06T01:31:26.519Z,5.53
2023-05-06T01:34:06.484Z,6.10
2023-05-06T01:36:43.113Z,5.50
2023-05-06T01:39:17.814Z,6.10
2023-05-06T01:41:47.598Z,6.13
2023-05-06T01:44:17.116Z,5.90
2023-05-06T01:46:50.333Z,5.60
2023-05-06T01:49:23.050Z,5.80
2023-05-06T01:51:51.834Z,5.83
2023-05-06T01:54:22.416Z,5.97
2023-05-06T01:56:51.231Z,6.47
2023-05-06T01:59:21.167Z,6.37
2023-05-06T02:01:50.312Z,6.60
2023-05-06T02:04:18.318Z,6.67
2023-05-06T02:06:51.271Z,6.57
2023-05-06T02:09:20.539Z,6.90
2023-05-06T02:11:50.272Z,6.70
2023-05-06T02:14:18.498Z,6.70
2023-05-06T02:16:46.367Z,6.60
2023-05-06T02:19:15.439Z,7.47
2023-05-06T02:21:43.352Z,7.87
2023-05-06T02:24:12.634Z,7.40
2023-05-06T02:26:43.142Z,7.10
2023-05-06T02:29:14.281Z,7.90
2023-05-06T02:31:47.260Z,7.40
2023-05-06T02:34:15.302Z,8.00
2023-05-06T02:36:43.223Z,8.00
2023-05-06T02:39:11.166Z,7.80
2023-05-06T02:41:39.081Z,7.93
2023-05-06T02:44:08.317Z,7.43
2023-05-06T02:46:36.234Z,7.40
2023-05-06T02:49:04.179Z,7.43
2023-05-06T02:51:32.439Z,7.43
2023-05-06T02:54:00.385Z,7.67
2023-05-06T02:56:28.326Z,7.70
2023-05-06T02:58:57.502Z,8.00
2023-05-06T03:01:29.426Z,7.43
2023-05-06T03:03:57.343Z,7.67
2023-05-06T03:06:25.257Z,7.20
2023-05-06T03:08:57.608Z,7.10
2023-05-06T03:11:26.041Z,7.77
2023-05-06T03:13:54.002Z,7.50
2023-05-06T03:16:21.947Z,8.03
2023-05-06T03:18:51.244Z,7.90
2023-05-06T03:21:19.210Z,7.27
2023-05-06T03:23:47.100Z,7.83
2023-05-06T03:26:15.785Z,7.90
2023-05-06T03:28:45.216Z,7.73
2023-05-06T03:31:14.857Z,7.87
2023-05-06T03:33:45.114Z,8.23
2023-05-06T03:36:15.066Z,8.17
2023-05-06T03:38:43.139Z,8.03
2023-05-06T03:41:11.139Z,8.43
2023-05-06T03:43:39.098Z,7.23
2023-05-06T03:46:08.479Z,8.07
2023-05-06T03:48:47.637Z,7.93
2023-05-06T03:51:16.935Z,7.67
2023-05-06T03:53:48.350Z,7.70
2023-05-06T03:56:18.429Z,7.70
2023-05-06T03:58:46.325Z,8.73
2023-05-06T04:01:14.214Z,8.37
2023-05-06T04:03:42.225Z,9.07
2023-05-06T04:06:11.070Z,8.57
2023-05-06T04:08:41.503Z,9.23
2023-05-06T04:11:13.023Z,9.33
2023-05-06T04:13:41.428Z,8.63
2023-05-06T04:16:11.256Z,8.63
2023-05-06T04:18:40.803Z,8.50
2023-05-06T04:21:08.688Z,9.17
2023-05-06T04:23:36.612Z,9.53
2023-05-06T04:26:06.090Z,8.83
2023-05-06T04:28:34.070Z,9.30
2023-05-06T04:34:05.516Z,9.03
2023-05-06T04:36:36.091Z,9.43
2023-05-06T04:39:06.658Z,9.23
2023-05-06T04:41:46.049Z,9.27
2023-05-06T04:44:14.021Z,9.30
2023-05-06T04:46:42.101Z,9.57
2023-05-06T04:49:11.886Z,9.40
2023-05-06T04:51:40.873Z,9.70
2023-05-06T04:54:18.995Z,9.33
2023-05-06T04:56:52.664Z,9.67
2023-05-06T04:59:21.199Z,10.07
2023-05-06T05:01:49.130Z,9.67
2023-05-06T05:04:17.158Z,9.87
2023-05-06T05:06:45.030Z,9.43
2023-05-06T05:09:13.909Z,9.93
2023-05-06T05:11:43.324Z,9.17
2023-05-06T05:14:17.758Z,9.40
2023-05-06T05:16:47.199Z,9.23
2023-05-06T05:19:15.419Z,9.33
2023-05-06T05:21:47.009Z,9.60
2023-05-06T05:24:14.886Z,9.43
2023-05-06T05:26:43.395Z,8.87
2023-05-06T05:29:11.309Z,10.07
2023-05-06T05:31:43.248Z,9.97
2023-05-06T05:34:11.238Z,9.33
2023-05-06T05:36:44.672Z,9.77
2023-05-06T05:39:15.208Z,9.60
2023-05-06T05:41:45.929Z,9.47
2023-05-06T05:44:13.834Z,9.70
2023-05-06T05:46:46.660Z,9.90
2023-05-06T05:49:14.783Z,10.10
2023-05-06T05:51:42.691Z,10.30
2023-05-06T05:54:11.447Z,10.40
2023-05-06T05:56:39.269Z,10.70
2023-05-06T05:59:07.510Z,10.50
2023-05-06T06:01:35.420Z,10.57
2023-05-06T06:04:05.133Z,11.13
2023-05-06T06:06:40.279Z,10.10
2023-05-06T06:09:09.472Z,10.90
2023-05-06T06:11:41.644Z,10.60
2023-05-06T06:14:09.628Z,11.47
2023-05-06T06:16:43.042Z,11.20
2023-05-06T06:19:22.502Z,11.07
2023-05-06T06:21:50.969Z,11.13
2023-05-06T06:24:21.121Z,11.60
2023-05-06T06:26:50.066Z,11.13
2023-05-06T06:29:20.127Z,11.47
2023-05-06T06:32:07.296Z,11.93
2023-05-06T06:34:50.843Z,11.77
2023-05-06T06:37:18.789Z,11.80
2023-05-06T06:39:46.718Z,11.87
2023-05-06T06:42:15.476Z,11.70
2023-05-06T06:44:45.600Z,12.37
2023-05-06T06:47:17.520Z,12.20
2023-05-06T06:49:59.897Z,11.93
2023-05-06T06:52:28.255Z,12.07
2023-05-06T06:54:56.278Z,11.87
2023-05-06T06:57:24.428Z,13.20
2023-05-06T06:59:55.693Z,12.50
2023-05-06T07:02:24.117Z,13.30
2023-05-06T07:04:56.989Z,13.23
2023-05-06T07:07:25.492Z,12.20
2023-05-06T07:09:53.652Z,12.47
2023-05-06T07:12:33.458Z,12.47
2023-05-06T07:15:01.472Z,13.10
2023-05-06T07:17:29.430Z,12.93
2023-05-06T07:19:58.648Z,12.90
2023-05-06T07:22:26.602Z,12.33
2023-05-06T07:24:54.509Z,13.50
2023-05-06T07:27:24.093Z,13.00
2023-05-06T07:29:52.181Z,14.70
2023-05-06T07:32:20.279Z,13.47
2023-05-06T07:34:48.136Z,14.33
2023-05-06T07:37:21.480Z,14.20
2023-05-06T07:39:49.331Z,15.10
2023-05-06T07:42:17.215Z,14.27
2023-05-06T07:44:45.205Z,15.23
2023-05-06T07:47:13.187Z,15.67
2023-05-06T07:49:41.268Z,16.17
2023-05-06T07:52:11.774Z,16.27
2023-05-06T07:54:41.290Z,16.97
2023-05-06T07:57:10.349Z,16.77
2023-05-06T07:59:38.280Z,16.97
2023-05-06T08:02:06.293Z,16.47
2023-05-06T08:04:34.427Z,15.67
2023-05-06T08:07:04.138Z,16.07
2023-05-06T08:09:35.067Z,15.87
2023-05-06T08:12:04.638Z,15.80
2023-05-06T08:14:34.134Z,15.87
2023-05-06T08:17:02.356Z,15.80
2023-05-06T08:19:30.839Z,15.40
2023-05-06T08:21:59.159Z,16.17
2023-05-06T08:24:27.943Z,15.23
2023-05-06T08:26:55.969Z,15.10
2023-05-06T08:29:26.788Z,14.07
2023-05-06T08:31:54.775Z,14.33
2023-05-06T08:34:22.745Z,13.87
2023-05-06T08:36:50.621Z,14.10
2023-05-06T08:39:18.753Z,13.90
2023-05-06T08:41:51.401Z,14.93
2023-05-06T08:44:20.883Z,15.50
2023-05-06T08:46:50.328Z,15.37
2023-05-06T08:49:18.431Z,14.70
2023-05-06T08:51:49.291Z,15.03
2023-05-06T08:54:19.013Z,14.73
2023-05-06T08:56:53.944Z,15.20
2023-05-06T08:59:27.929Z,15.37
2023-05-06T09:01:57.915Z,16.50
2023-05-06T09:07:16.404Z,17.23
2023-05-06T09:09:44.366Z,19.03
2023-05-06T09:12:13.686Z,17.73
2023-05-06T09:14:42.797Z,19.17
2023-05-06T09:17:26.475Z,17.97
2023-05-06T09:19:57.017Z,17.83
2023-05-06T09:22:26.813Z,17.50
2023-05-06T09:24:57.469Z,18.23
2023-05-06T09:27:26.486Z,17.70
2023-05-06T09:30:02.932Z,18.53
2023-05-06T09:32:40.416Z,19.03
2023-05-06T09:35:10.410Z,17.87
2023-05-06T09:37:39.492Z,17.23
2023-05-06T09:40:10.274Z,19.23
2023-05-06T09:42:38.792Z,18.47
2023-05-06T09:45:09.453Z,18.70
2023-05-06T09:47:39.032Z,17.50
2023-05-06T09:50:10.365Z,16.33
2023-05-06T09:52:38.639Z,14.70
2023-05-06T09:55:08.560Z,14.83
2023-05-06T09:57:38.164Z,15.83
2023-05-06T10:00:09.766Z,16.57
2023-05-06T10:02:40.048Z,13.43
2023-05-06T10:05:14.690Z,12.93
2023-05-06T10:07:43.036Z,13.37
2023-05-06T10:10:12.936Z,13.17
2023-05-06T10:12:43.544Z,13.60
2023-05-06T10:15:11.676Z,12.90
2023-05-06T10:17:47.316Z,12.50
2023-05-06T10:20:15.773Z,10.80
2023-05-06T10:22:53.371Z,11.60
2023-05-06T10:25:30.945Z,9.80
2023-05-06T10:28:06.158Z,8.13
2023-05-06T10:30:38.281Z,7.50
2023-05-06T10:33:10.189Z,8.33
2023-05-06T10:36:01.311Z,7.07
2023-05-06T10:38:36.687Z,7.87
2023-05-06T10:41:05.523Z,8.53
2023-05-06T10:43:34.508Z,8.00
2023-05-06T10:46:11.333Z,5.60
2023-05-06T10:49:21.174Z,5.40
2023-05-06T10:52:11.756Z,5.53
2023-05-06T10:54:49.596Z,7.00
2023-05-06T10:57:18.635Z,7.40
2023-05-06T10:59:50.960Z,7.93
2023-05-06T11:02:21.387Z,7.53
2023-05-06T11:05:02.084Z,7.57
2023-05-06T11:07:30.052Z,7.67
2023-05-06T11:10:00.195Z,7.47
2023-05-06T11:12:49.172Z,7.10
2023-05-06T11:15:27.230Z,6.10
2023-05-06T11:17:56.473Z,5.67
2023-05-06T11:20:26.783Z,5.33
2023-05-06T11:22:55.444Z,5.68
2023-05-06T11:25:42.815Z,5.47
2023-05-06T11:28:12.416Z,4.68
2023-05-06T11:30:43.627Z,4.30
2023-05-06T11:33:19.594Z,5.72
2023-05-06T11:35:49.352Z,5.38
2023-05-06T11:38:17.369Z,5.18
2023-05-06T11:40:45.444Z,5.80
2023-05-06T11:43:14.273Z,5.25
2023-05-06T11:45:44.041Z,5.63
2023-05-06T11:48:15.510Z,5.97
2023-05-06T11:50:48.472Z,5.10
2023-05-06T11:53:19.666Z,5.80
2023-05-06T11:55:48.732Z,5.22
2023-05-06T11:58:17.531Z,5.60
2023-05-06T12:00:51.748Z,5.55
2023-05-06T12:03:20.925Z,5.30
2023-05-06T12:05:51.950Z,6.03
2023-05-06T12:08:28.098Z,5.32
2023-05-06T12:10:59.034Z,5.72
2023-05-06T12:13:27.698Z,6.00
2023-05-06T12:15:56.407Z,5.40
2023-05-06T12:18:25.325Z,5.47
2023-05-06T12:20:56.125Z,5.60
2023-05-06T12:23:24.176Z,5.15
2023-05-06T12:26:02.801Z,5.55
2023-05-06T12:28:32.481Z,5.40
2023-05-06T12:31:00.749Z,5.25
2023-05-06T12:33:28.701Z,5.55
2023-05-06T12:36:13.063Z,4.97
2023-05-06T12:38:50.242Z,5.80
2023-05-06T12:41:19.799Z,5.75
2023-05-06T12:43:50.398Z,6.30
2023-05-06T12:46:18.581Z,6.40
2023-05-06T12:49:03.850Z,6.75
2023-05-06T12:51:35.460Z,7.43
2023-05-06T12:54:04.830Z,9.00
2023-05-06T12:56:32.699Z,8.68
2023-05-06T12:59:04.632Z,8.23
2023-05-06T13:01:32.584Z,8.83
2023-05-06T13:04:03.228Z,9.60
2023-05-06T13:06:33.739Z,8.93
2023-05-06T13:09:01.710Z,9.50
2023-05-06T13:11:29.586Z,9.27
2023-05-06T13:13:57.496Z,9.77
2023-05-06T13:16:25.800Z,9.97
2023-05-06T13:18:53.821Z,9.70
2023-05-06T13:21:23.139Z,9.10
2023-05-06T13:23:53.053Z,9.52
2023-05-06T13:26:22.811Z,8.90
2023-05-06T13:28:51.035Z,9.30
2023-05-06T13:31:18.975Z,8.57
2023-05-06T13:33:46.967Z,8.80
2023-05-06T13:36:15.225Z,8.67
2023-05-06T13:38:43.160Z,8.17
2023-05-06T13:41:12.864Z,8.47
2023-05-06T13:43:40.782Z,8.17
2023-05-06T13:46:09.889Z,8.07
2023-05-06T13:48:40.988Z,7.85
2023-05-06T13:51:09.074Z,7.93
2023-05-06T13:53:37.269Z,6.77
2023-05-06T13:56:06.003Z,6.83
2023-05-06T13:58:36.105Z,7.30
2023-05-06T14:01:06.980Z,6.47
2023-05-06T14:03:34.918Z,6.60
2023-05-06T14:06:04.061Z,6.75
2023-05-06T14:08:33.606Z,6.60
2023-05-06T14:11:03.355Z,6.95
2023-05-06T14:13:35.719Z,5.90
2023-05-06T14:16:12.962Z,6.18
2023-05-06T14:18:45.405Z,5.60
2023-05-06T14:21:15.811Z,6.00
2023-05-06T14:23:47.922Z,5.95
2023-05-06T14:26:15.969Z,6.07
2023-05-06T14:28:47.106Z,6.60
2023-05-06T14:31:17.257Z,6.17
2023-05-06T14:33:45.384Z,6.30
2023-05-06T14:36:21.919Z,6.33
2023-05-06T14:38:50.148Z,6.60
2023-05-06T14:41:22.034Z,6.10
2023-05-06T14:43:50.938Z,6.20
2023-05-06T14:46:20.801Z,5.90
2023-05-06T14:48:48.821Z,6.40
2023-05-06T14:51:16.753Z,6.83
2023-05-06T14:53:47.047Z,5.97
2023-05-06T14:56:15.058Z,6.75
2023-05-06T14:58:43.449Z,6.70
2023-05-06T15:01:11.735Z,5.90
2023-05-06T15:03:41.640Z,6.43
2023-05-06T15:06:09.649Z,5.43
2023-05-06T15:08:37.609Z,5.82
2023-05-06T15:11:06.501Z,5.90
2023-05-06T15:13:35.352Z,7.30
2023-05-06T15:16:04.517Z,6.67
2023-05-06T15:18:32.432Z,8.45
2023-05-06T15:21:06.297Z,7.90
2023-05-06T15:23:34.283Z,7.95
2023-05-06T15:26:02.288Z,7.78
2023-05-06T15:28:31.186Z,7.30
2023-05-06T15:30:59.110Z,7.85
2023-05-06T15:33:26.995Z,8.45
2023-05-06T15:35:54.957Z,9.03
2023-05-06T15:38:27.465Z,9.30
2023-05-06T15:40:55.626Z,9.25
2023-05-06T15:43:24.640Z,9.23
2023-05-06T15:45:53.295Z,8.83
2023-05-06T15:48:21.666Z,9.10
2023-05-06T15:50:49.805Z,9.20
2023-05-06T15:53:18.065Z,8.43
2023-05-06T15:55:56.194Z,9.60
2023-05-06T15:58:28.204Z,9.50
2023-05-06T16:00:58.421Z,8.90
2023-05-06T16:03:26.506Z,8.90
2023-05-06T16:05:55.213Z,9.40
2023-05-06T16:08:23.296Z,8.88
2023-05-06T16:10:53.804Z,8.50
2023-05-06T16:13:21.995Z,8.15
2023-05-06T16:15:50.127Z,8.13
2023-05-06T16:18:18.105Z,8.07
2023-05-06T16:20:46.142Z,8.07
2023-05-06T16:23:17.270Z,7.77
2023-05-06T16:25:45.099Z,7.13
2023-05-06T16:28:14.566Z,7.13
2023-05-06T16:30:46.271Z,7.43
2023-05-06T16:33:15.970Z,6.70
2023-05-06T16:35:46.210Z,6.67
2023-05-06T16:38:14.717Z,6.82
2023-05-06T16:40:43.259Z,6.50
2023-05-06T16:43:11.777Z,7.47
2023-05-06T16:45:45.114Z,7.33
2023-05-06T16:48:13.853Z,6.67
2023-05-06T16:50:42.151Z,6.87
2023-05-06T16:53:10.159Z,6.43
2023-05-06T16:55:38.381Z,6.70
2023-05-06T16:58:06.483Z,7.50
2023-05-06T17:00:37.442Z,6.75
2023-05-06T17:03:10.109Z,7.57
2023-05-06T17:05:40.333Z,7.25
2023-05-06T17:08:08.514Z,5.60
2023-05-06T17:10:36.686Z,4.83
2023-05-06T17:13:05.215Z,4.70
2023-05-06T17:15:33.924Z,4.20
2023-05-06T17:18:04.085Z,4.40
2023-05-06T17:20:38.014Z,4.20
2023-05-06T17:23:12.746Z,4.60
2023-05-06T17:25:40.593Z,4.20
2023-05-06T17:28:08.514Z,4.00
2023-05-06T17:30:40.985Z,3.87
2023-05-06T17:33:08.899Z,4.83
2023-05-06T17:35:38.508Z,4.43
2023-05-06T17:38:06.511Z,4.07
2023-05-06T17:40:34.444Z,4.77
2023-05-06T17:43:02.413Z,5.03
2023-05-06T17:45:30.343Z,5.37
2023-05-06T17:47:58.430Z,5.33
2023-05-06T17:50:26.396Z,5.30
2023-05-06T17:52:55.930Z,5.05
2023-05-06T17:55:24.015Z,4.67
2023-05-06T17:57:52.649Z,5.43
2023-05-06T18:00:22.104Z,5.70
2023-05-06T18:02:50.067Z,5.73
2023-05-06T18:05:23.606Z,5.73
2023-05-06T18:07:54.910Z,5.85
2023-05-06T18:10:25.838Z,6.27
2023-05-06T18:12:55.401Z,5.20
2023-05-06T18:15:23.312Z,6.90
2023-05-06T18:17:51.648Z,6.03
2023-05-06T18:20:19.757Z,6.30
2023-05-06T18:22:47.733Z,7.17
2023-05-06T18:25:16.173Z,7.73
2023-05-06T18:27:45.461Z,7.13
2023-05-06T18:30:14.106Z,6.33
2023-05-06T18:32:43.055Z,6.20
2023-05-06T18:35:13.249Z,7.63
2023-05-06T18:37:41.428Z,6.87
2023-05-06T18:40:10.475Z,6.43
2023-05-06T18:42:38.631Z,5.40
2023-05-06T18:45:09.361Z,6.70
2023-05-06T18:47:39.953Z,5.73
2023-05-06T18:50:09.373Z,5.80
2023-05-06T18:52:37.636Z,5.37
2023-05-06T18:55:05.993Z,5.87
2023-05-06T18:57:34.143Z,6.33
2023-05-06T19:00:02.153Z,5.43
2023-05-06T19:02:31.565Z,6.07
2023-05-06T19:04:59.454Z,6.07
2023-05-06T19:07:27.657Z,5.77
2023-05-06T19:09:56.616Z,6.77
2023-05-06T19:12:25.085Z,6.27
2023-05-06T19:14:54.479Z,6.43
2023-05-06T19:17:23.031Z,5.70
2023-05-06T19:19:56.099Z,4.60
2023-05-06T19:22:26.312Z,4.63
2023-05-06T19:24:55.342Z,4.57
2023-05-06T19:27:24.241Z,5.20
2023-05-06T19:29:52.626Z,12.03
2023-05-06T19:32:21.029Z,8.10
2023-05-06T19:34:48.936Z,6.57
2023-05-06T19:37:18.230Z,7.37
2023-05-06T19:39:49.809Z,8.53
2023-05-06T19:42:19.205Z,6.60
2023-05-06T19:44:48.948Z,6.03
2023-05-06T19:50:21.341Z,6.27
2023-05-06T19:53:04.610Z,6.00
2023-05-06T19:55:39.811Z,6.17
2023-05-06T19:58:08.925Z,6.40
2023-05-06T20:00:46.053Z,6.50
2023-05-06T20:03:25.311Z,6.30
2023-05-06T20:05:54.054Z,6.47
2023-05-06T20:08:27.732Z,6.63
2023-05-06T20:10:55.805Z,7.33
2023-05-06T20:13:23.800Z,7.57
2023-05-06T20:15:51.738Z,7.10
2023-05-06T20:18:19.718Z,7.10
2023-05-06T20:20:47.788Z,6.50
2023-05-06T20:23:16.223Z,7.03
2023-05-06T20:25:45.487Z,7.57
2023-05-06T20:28:13.476Z,7.10
2023-05-06T20:30:41.717Z,7.33
2023-05-06T20:33:13.985Z,7.27
2023-05-06T20:35:42.664Z,7.37
2023-05-06T20:38:11.136Z,8.23
2023-05-06T20:40:39.119Z,8.07
2023-05-06T20:43:08.433Z,7.97
2023-05-06T20:45:36.402Z,7.83
2023-05-06T20:48:04.408Z,8.43
2023-05-06T20:50:39.111Z,9.40
2023-05-06T20:53:08.260Z,8.93
2023-05-06T20:55:36.301Z,9.47
2023-05-06T20:58:04.271Z,9.70
2023-05-06T21:00:33.610Z,9.63
2023-05-06T21:03:01.961Z,10.03
2023-05-06T21:05:29.918Z,10.17
2023-05-06T21:07:58.157Z,10.07
2023-05-06T21:10:26.088Z,9.73
2023-05-06T21:12:54.087Z,9.63
2023-05-06T21:15:22.118Z,9.93
2023-05-06T21:17:53.569Z,9.63
2023-05-06T21:20:21.525Z,9.87
2023-05-06T21:22:49.397Z,9.23
2023-05-06T21:25:17.330Z,9.83
2023-05-06T21:27:45.285Z,9.17
2023-05-06T21:30:14.998Z,9.03
2023-05-06T21:32:43.736Z,8.73
2023-05-06T21:35:13.235Z,8.30
2023-05-06T21:37:41.164Z,8.03
2023-05-06T21:40:10.462Z,8.37
2023-05-06T21:42:38.354Z,8.27
2023-05-06T21:45:07.543Z,8.30
2023-05-06T21:47:35.841Z,7.90
2023-05-06T21:50:03.852Z,8.47
2023-05-06T21:52:33.641Z,8.60
2023-05-06T21:55:01.601Z,8.07
2023-05-06T21:57:29.554Z,8.20
2023-05-06T21:59:57.585Z,8.23
2023-05-06T22:02:25.566Z,7.40
2023-05-06T22:04:53.591Z,7.57
2023-05-06T22:07:21.718Z,7.77
2023-05-06T22:09:50.909Z,7.87
2023-05-06T22:12:18.823Z,8.43
2023-05-06T22:14:46.747Z,8.93
2023-05-06T22:17:15.656Z,8.30
2023-05-06T22:19:43.554Z,8.20
2023-05-06T22:22:11.994Z,7.33
2023-05-06T22:24:40.555Z,8.40
2023-05-06T22:27:09.875Z,8.43
2023-05-06T22:29:37.710Z,8.80
2023-05-06T22:32:06.294Z,9.53
2023-05-06T22:34:34.296Z,9.03
2023-05-06T22:37:02.298Z,8.93
2023-05-06T22:39:30.213Z,9.30
2023-05-06T22:41:58.100Z,9.10
2023-05-06T22:44:27.352Z,9.70
2023-05-06T22:46:56.140Z,10.37
2023-05-06T22:49:28.222Z,10.03
2023-05-06T22:51:56.973Z,10.30
2023-05-06T22:54:25.329Z,10.93
2023-05-06T22:56:53.200Z,11.00
2023-05-06T22:59:21.203Z,10.97
2023-05-06T23:01:50.469Z,11.37
2023-05-06T23:04:18.435Z,10.97
2023-05-06T23:06:46.430Z,11.30
2023-05-06T23:09:14.500Z,11.27
2023-05-06T23:11:42.703Z,11.77
2023-05-06T23:14:10.677Z,12.13
2023-05-06T23:16:38.628Z,11.47
2023-05-06T23:19:07.893Z,12.13
2023-05-06T23:21:35.874Z,11.33
2023-05-06T23:24:03.814Z,11.77
2023-05-06T23:26:31.724Z,11.27
2023-05-06T23:28:59.649Z,12.43
2023-05-06T23:31:27.665Z,12.23
2023-05-06T23:33:55.607Z,11.73
2023-05-06T23:36:24.963Z,11.00
2023-05-06T23:38:52.924Z,10.37
2023-05-06T23:41:21.290Z,10.10
2023-05-06T23:43:49.128Z,9.87
2023-05-06T23:46:17.119Z,9.30
2023-05-06T23:48:45.173Z,8.40
2023-05-06T23:51:13.106Z,7.70
2023-05-06T23:53:42.370Z,7.33
2023-05-06T23:56:10.336Z,7.23
2023-05-06T23:58:38.236Z,7.53
